Time;durP1;ratioP1;P1;durP2;ratioP2;P2;SDS_P1;SDS_P2;PMS_P1;PMS_P2;Temp;Humidity;BMP_temperature;BMP_pressure;BME280_temperature;BME280_humidity;BME280_pressure;Samples;Min_cycle;Max_cycle;Signal;HPM_P1;HPM_P2
2022/03/13 00:00:36;;;;;;;19.80;13.93;;;8.50;72.30;;;;;;4915202;29;20075;-68
2022/03/13 00:03:09;;;;;;;17.90;13.18;;;8.50;72.40;;;;;;4914843;29;20509;-69
2022/03/13 00:05:39;;;;;;;23.45;13.65;;;8.50;72.40;;;;;;4915355;29;20044;-69
2022/03/13 00:08:25;;;;;;;20.40;13.18;;;8.40;72.40;;;;;;4912321;29;20048;-69
2022/03/13 00:11:03;;;;;;;20.20;13.98;;;8.50;72.60;;;;;;4934239;29;20047;-69
2022/03/13 00:13:37;;;;;;;18.88;13.45;;;8.40;72.80;;;;;;4915697;29;20421;-69
2022/03/13 00:16:09;;;;;;;19.95;13.30;;;8.40;72.80;;;;;;4914885;29;20114;-69
2022/03/13 00:18:41;;;;;;;16.98;13.27;;;8.40;72.70;;;;;;4920523;29;20040;-68
2022/03/13 00:21:10;;;;;;;21.95;13.68;;;8.40;72.70;;;;;;4914539;29;20273;-68
2022/03/13 00:23:35;;;;;;;18.98;13.13;;;8.40;72.90;;;;;;4913931;29;20051;-68
2022/03/13 00:26:02;;;;;;;21.35;13.02;;;8.40;73.00;;;;;;4914588;29;20048;-69
2022/03/13 00:28:28;;;;;;;18.95;13.23;;;8.40;72.90;;;;;;4930894;29;20336;-68
2022/03/13 00:30:54;;;;;;;21.95;15.25;;;8.40;72.90;;;;;;4919331;29;20484;-68
2022/03/13 00:33:20;;;;;;;24.30;13.05;;;8.40;72.90;;;;;;4913835;29;20040;-68
2022/03/13 00:35:46;;;;;;;17.88;12.68;;;8.40;72.90;;;;;;4924983;29;20055;-69
2022/03/13 00:38:12;;;;;;;22.95;14.10;;;8.40;72.80;;;;;;4915515;29;20052;-69
2022/03/13 00:40:37;;;;;;;20.08;14.23;;;8.40;72.80;;;;;;4914699;29;20076;-68
2022/03/13 00:43:04;;;;;;;18.83;13.07;;;8.40;73.00;;;;;;4925782;29;20050;-68
2022/03/13 00:45:29;;;;;;;19.30;14.30;;;8.30;73.10;;;;;;4933505;29;20048;-69
2022/03/13 00:47:56;;;;;;;20.27;13.57;;;8.30;73.40;;;;;;4922095;29;20083;-68
2022/03/13 00:50:23;;;;;;;18.67;13.75;;;8.30;73.30;;;;;;4914259;29;20055;-69
2022/03/13 00:52:48;;;;;;;21.05;14.40;;;8.20;73.40;;;;;;4914626;29;20040;-69
2022/03/13 00:55:14;;;;;;;22.65;14.82;;;8.20;73.60;;;;;;4914148;29;20044;-69
2022/03/13 00:57:43;;;;;;;18.83;13.63;;;8.20;73.30;;;;;;4920584;29;20079;-69
2022/03/13 01:00:11;;;;;;;21.75;13.32;;;8.20;73.50;;;;;;4930625;29;20056;-69
2022/03/13 01:02:37;;;;;;;20.35;13.32;;;8.20;73.50;;;;;;4927241;29;20044;-69
2022/03/13 01:05:03;;;;;;;20.65;13.80;;;8.20;73.60;;;;;;4913767;29;20048;-68
2022/03/13 01:07:29;;;;;;;20.33;14.57;;;8.20;73.70;;;;;;4917972;29;20044;-69
2022/03/13 01:09:55;;;;;;;21.27;14.02;;;8.30;73.70;;;;;;4922889;29;20051;-68
2022/03/13 01:12:21;;;;;;;22.08;14.90;;;8.30;73.60;;;;;;4918994;29;21482;-69
2022/03/13 01:14:47;;;;;;;20.48;14.63;;;8.30;73.40;;;;;;4914677;29;20048;-68
2022/03/13 01:17:12;;;;;;;18.02;13.38;;;8.20;73.60;;;;;;4950317;28;20054;-68
2022/03/13 01:19:38;;;;;;;22.48;14.02;;;8.20;73.80;;;;;;4924542;29;20485;-68
2022/03/13 01:22:05;;;;;;;18.23;13.88;;;8.20;73.80;;;;;;4923396;29;20090;-69
2022/03/13 01:24:44;;;;;;;19.25;13.65;;;8.20;73.90;;;;;;4930517;29;20371;-69
2022/03/13 01:27:11;;;;;;;19.52;13.15;;;8.30;74.10;;;;;;4929013;29;20771;-69
2022/03/13 01:29:37;;;;;;;19.38;14.02;;;8.30;73.90;;;;;;4930654;29;20564;-69
2022/03/13 01:32:03;;;;;;;24.40;14.00;;;8.30;74.00;;;;;;4929445;29;20094;-69
2022/03/13 01:34:32;;;;;;;20.73;13.52;;;8.30;74.00;;;;;;4930701;29;20048;-69
2022/03/13 01:36:58;;;;;;;21.02;13.52;;;8.30;73.90;;;;;;4930724;29;20111;-69
2022/03/13 01:39:24;;;;;;;19.25;13.65;;;8.40;74.00;;;;;;4930940;29;20047;-69
2022/03/13 01:41:50;;;;;;;22.42;13.85;;;8.50;74.10;;;;;;4931192;29;20130;-69
2022/03/13 01:44:18;;;;;;;19.15;12.88;;;8.50;74.10;;;;;;4930675;29;20158;-69
2022/03/13 01:46:44;;;;;;;17.08;11.93;;;8.50;74.20;;;;;;4930496;29;20051;-68
2022/03/13 01:49:10;;;;;;;15.90;11.55;;;8.50;74.10;;;;;;4930185;29;20047;-69
2022/03/13 01:51:36;;;;;;;18.65;12.57;;;8.60;73.80;;;;;;4930788;29;20409;-68
2022/03/13 01:54:09;;;;;;;20.17;11.95;;;8.50;73.80;;;;;;4930672;29;20044;-68
2022/03/13 01:56:36;;;;;;;16.60;11.63;;;8.60;74.00;;;;;;4930744;29;20408;-68
2022/03/13 01:59:03;;;;;;;17.90;12.13;;;8.60;73.90;;;;;;4930655;29;20070;-69
2022/03/13 02:01:28;;;;;;;16.90;12.77;;;8.50;73.90;;;;;;4930258;29;20071;-68
2022/03/13 02:03:55;;;;;;;19.13;12.93;;;8.50;73.90;;;;;;4898111;29;20487;-68
2022/03/13 02:06:26;;;;;;;18.92;12.63;;;8.50;73.90;;;;;;4930808;29;20051;-67
2022/03/13 02:08:54;;;;;;;22.90;13.30;;;8.50;74.00;;;;;;4910481;29;20047;-68
2022/03/13 02:11:21;;;;;;;19.17;13.20;;;8.50;73.90;;;;;;4930596;29;20047;-69
2022/03/13 02:13:49;;;;;;;21.48;12.88;;;8.60;73.90;;;;;;4930776;29;20043;-69
2022/03/13 02:16:17;;;;;;;19.60;12.57;;;8.50;74.10;;;;;;4930017;29;20050;-69
2022/03/13 02:18:48;;;;;;;17.98;12.85;;;8.50;74.00;;;;;;4930989;29;20032;-69
2022/03/13 02:21:14;;;;;;;16.35;13.00;;;8.50;74.10;;;;;;4930695;29;20447;-69
2022/03/13 02:23:41;;;;;;;19.25;13.75;;;8.50;74.00;;;;;;4913151;29;20052;-69
2022/03/13 02:26:07;;;;;;;22.73;13.65;;;8.40;74.10;;;;;;4929056;29;20066;-69
2022/03/13 02:28:35;;;;;;;18.65;13.10;;;8.30;74.10;;;;;;4930300;29;20063;-69
2022/03/13 02:31:11;;;;;;;21.63;13.65;;;8.40;74.20;;;;;;4930451;29;20058;-69
2022/03/13 02:33:38;;;;;;;17.90;13.68;;;8.40;74.20;;;;;;4930524;29;20044;-69
2022/03/13 02:36:30;;;;;;;19.33;13.75;;;8.40;74.10;;;;;;4930240;29;20054;-69
2022/03/13 02:38:56;;;;;;;16.88;12.45;;;8.40;74.20;;;;;;4930551;29;20071;-69
2022/03/13 02:41:22;;;;;;;22.02;12.32;;;8.30;74.30;;;;;;4930144;29;20048;-69
2022/03/13 02:43:47;;;;;;;18.65;13.82;;;8.40;74.30;;;;;;4930665;29;20142;-69
2022/03/13 02:46:21;;;;;;;21.83;13.27;;;8.40;74.20;;;;;;4930254;29;20059;-69
2022/03/13 02:48:51;;;;;;;19.73;14.00;;;8.40;74.20;;;;;;4929818;29;20059;-70
2022/03/13 02:51:17;;;;;;;18.20;12.98;;;8.30;74.40;;;;;;4933288;29;20054;-70
2022/03/13 02:53:44;;;;;;;15.23;12.00;;;8.30;74.30;;;;;;4915969;29;20055;-69
2022/03/13 02:56:10;;;;;;;15.75;11.38;;;8.30;74.30;;;;;;4933763;29;20043;-69
2022/03/13 02:58:35;;;;;;;18.55;12.85;;;8.30;74.40;;;;;;4932900;29;20515;-68
2022/03/13 03:01:01;;;;;;;16.25;13.02;;;8.30;74.50;;;;;;4934154;29;20233;-68
2022/03/13 03:03:28;;;;;;;18.08;13.13;;;8.30;74.40;;;;;;4933752;29;20055;-69
2022/03/13 03:05:54;;;;;;;22.92;13.88;;;8.40;74.40;;;;;;4933627;29;20040;-69
2022/03/13 03:08:21;;;;;;;21.65;13.65;;;8.40;74.40;;;;;;4933773;29;20051;-69
2022/03/13 03:10:47;;;;;;;17.80;12.55;;;8.30;74.30;;;;;;4933805;29;20048;-70
2022/03/13 03:13:15;;;;;;;16.77;12.38;;;8.40;74.30;;;;;;4932870;29;20482;-69
2022/03/13 03:15:41;;;;;;;19.25;13.68;;;8.30;74.30;;;;;;4933522;29;20047;-69
2022/03/13 03:18:09;;;;;;;19.50;13.55;;;8.40;74.30;;;;;;4933516;29;20039;-69
2022/03/13 03:20:35;;;;;;;22.15;13.98;;;8.40;74.30;;;;;;4933237;29;20198;-69
2022/03/13 03:23:01;;;;;;;18.88;12.10;;;8.30;74.30;;;;;;4933384;29;20537;-69
2022/03/13 03:25:28;;;;;;;19.10;13.60;;;8.40;74.40;;;;;;4929337;29;20060;-69
2022/03/13 03:27:56;;;;;;;19.75;13.52;;;8.40;74.30;;;;;;4916341;29;20044;-70
2022/03/13 03:30:24;;;;;;;18.23;13.35;;;8.40;74.20;;;;;;4933212;29;20126;-68
2022/03/13 03:32:51;;;;;;;17.80;13.13;;;8.40;74.20;;;;;;4933146;29;20050;-69
2022/03/13 03:35:19;;;;;;;18.02;13.13;;;8.40;74.20;;;;;;4932941;29;20047;-69
2022/03/13 03:37:48;;;;;;;22.08;13.48;;;8.40;74.40;;;;;;4932737;29;20048;-69
2022/03/13 03:40:14;;;;;;;18.67;13.32;;;8.40;74.20;;;;;;4933151;29;20515;-69
2022/03/13 03:42:40;;;;;;;23.70;13.30;;;8.50;74.20;;;;;;4932843;29;20043;-70
2022/03/13 03:45:07;;;;;;;18.25;12.35;;;8.50;74.20;;;;;;4933014;29;20528;-70
2022/03/13 03:47:33;;;;;;;21.20;12.77;;;8.50;74.20;;;;;;4932626;29;20048;-68
2022/03/13 03:49:58;;;;;;;18.10;12.13;;;8.50;74.10;;;;;;4932793;29;20074;-69
2022/03/13 03:52:24;;;;;;;15.88;11.32;;;8.50;74.20;;;;;;4932822;29;20047;-69
2022/03/13 03:54:50;;;;;;;17.98;12.02;;;8.50;74.10;;;;;;4932459;29;20052;-69
2022/03/13 03:57:15;;;;;;;17.00;12.27;;;8.50;74.20;;;;;;4932303;29;20047;-69
2022/03/13 03:59:41;;;;;;;19.02;12.23;;;8.60;74.20;;;;;;4932822;29;20456;-69
2022/03/13 04:02:06;;;;;;;16.38;12.05;;;8.50;74.10;;;;;;4932356;29;20044;-69
2022/03/13 04:04:32;;;;;;;19.92;12.45;;;8.60;74.00;;;;;;4932689;29;20190;-69
2022/03/13 04:06:57;;;;;;;16.65;12.55;;;8.50;74.00;;;;;;4932620;29;20052;-69
2022/03/13 04:09:23;;;;;;;17.98;12.20;;;8.60;74.00;;;;;;4932544;29;20488;-69
2022/03/13 04:11:49;;;;;;;15.38;11.32;;;8.60;73.90;;;;;;4932200;29;20095;-69
2022/03/13 04:14:15;;;;;;;20.02;12.52;;;8.60;73.90;;;;;;4932514;29;20043;-68
2022/03/13 04:16:41;;;;;;;17.67;13.07;;;8.60;73.90;;;;;;4932549;29;20523;-69
2022/03/13 04:19:11;;;;;;;17.85;13.23;;;8.60;73.90;;;;;;4932511;29;20098;-69
2022/03/13 04:21:40;;;;;;;19.27;11.80;;;8.60;73.80;;;;;;4932582;29;20040;-69
2022/03/13 04:24:07;;;;;;;18.08;13.40;;;8.60;73.80;;;;;;4931523;29;20517;-69
2022/03/13 04:26:32;;;;;;;18.02;13.23;;;8.60;73.70;;;;;;4932232;29;20164;-69
2022/03/13 04:28:58;;;;;;;18.90;11.73;;;8.60;73.60;;;;;;4932340;29;20531;-69
2022/03/13 04:31:24;;;;;;;17.05;12.30;;;8.50;73.80;;;;;;4932244;29;20044;-69
2022/03/13 04:33:50;;;;;;;22.65;13.13;;;8.50;73.60;;;;;;4931750;29;20101;-69
2022/03/13 04:36:22;;;;;;;15.82;12.35;;;8.50;73.70;;;;;;4931710;29;20071;-69
2022/03/13 04:38:48;;;;;;;17.55;12.23;;;8.50;73.80;;;;;;4931897;29;20035;-69
2022/03/13 04:41:14;;;;;;;18.95;12.25;;;8.50;73.80;;;;;;4932020;29;20044;-69
2022/03/13 04:43:39;;;;;;;19.35;12.95;;;8.50;73.90;;;;;;4932170;29;20039;-68
2022/03/13 04:46:06;;;;;;;19.42;13.45;;;8.50;73.90;;;;;;4931631;29;20493;-68
2022/03/13 04:48:35;;;;;;;17.30;12.40;;;8.50;73.90;;;;;;4931419;29;20081;-69
2022/03/13 04:51:01;;;;;;;18.75;12.85;;;8.50;73.90;;;;;;4931767;29;20054;-68
2022/03/13 04:53:28;;;;;;;17.30;12.35;;;8.40;73.90;;;;;;4930988;29;20095;-68
2022/03/13 04:55:54;;;;;;;19.60;12.85;;;8.40;73.90;;;;;;4914774;29;20377;-68
2022/03/13 04:58:20;;;;;;;17.13;12.43;;;8.30;74.10;;;;;;4931722;29;20496;-69
2022/03/13 05:00:47;;;;;;;20.75;13.00;;;8.30;74.00;;;;;;4931176;29;20123;-68
2022/03/13 05:03:13;;;;;;;23.00;14.40;;;8.40;74.10;;;;;;4931667;29;20126;-69
2022/03/13 05:05:40;;;;;;;18.23;13.55;;;8.30;74.30;;;;;;4931807;29;20055;-69
2022/03/13 05:08:15;;;;;;;18.45;12.77;;;8.20;74.10;;;;;;4931673;29;20547;-68
2022/03/13 05:10:42;;;;;;;20.45;12.93;;;8.20;74.20;;;;;;4931144;29;20481;-68
2022/03/13 05:13:13;;;;;;;18.77;13.48;;;8.20;74.10;;;;;;4929775;29;20465;-69
2022/03/13 05:15:39;;;;;;;19.50;13.25;;;8.20;74.20;;;;;;4930665;29;20087;-68
2022/03/13 05:18:05;;;;;;;17.92;13.15;;;8.20;74.10;;;;;;4931351;29;20134;-69
2022/03/13 05:20:35;;;;;;;18.33;12.95;;;8.20;74.10;;;;;;4931647;29;20044;-69
2022/03/13 05:23:06;;;;;;;19.80;13.38;;;8.20;74.20;;;;;;4930988;29;20054;-68
2022/03/13 05:25:32;;;;;;;18.23;12.68;;;8.20;74.20;;;;;;4930344;29;20044;-68
2022/03/13 05:27:59;;;;;;;19.85;13.38;;;8.10;74.20;;;;;;4931503;29;20039;-69
2022/03/13 05:30:25;;;;;;;17.70;13.75;;;8.10;74.20;;;;;;4914752;29;20489;-68
2022/03/13 05:32:51;;;;;;;21.27;14.30;;;8.10;74.00;;;;;;4916813;29;20044;-69
2022/03/13 05:35:17;;;;;;;19.98;13.52;;;8.20;73.90;;;;;;4911838;29;20087;-68
2022/03/13 05:37:44;;;;;;;20.85;14.18;;;8.10;74.00;;;;;;4926909;29;20535;-68
2022/03/13 05:40:13;;;;;;;18.45;12.75;;;8.10;74.00;;;;;;4932627;29;20114;-69
2022/03/13 05:42:44;;;;;;;18.75;13.18;;;8.10;74.00;;;;;;4926179;28;20043;-69
2022/03/13 05:45:15;;;;;;;22.15;13.63;;;8.10;74.00;;;;;;4935960;29;20055;-68
2022/03/13 05:47:52;;;;;;;18.75;13.10;;;8.10;74.00;;;;;;4919946;29;20056;-69
2022/03/13 05:50:20;;;;;;;20.40;13.63;;;8.10;74.00;;;;;;4926839;29;20060;-68
2022/03/13 05:52:47;;;;;;;17.35;13.00;;;8.10;73.90;;;;;;4931607;29;20051;-68
2022/03/13 05:55:14;;;;;;;16.33;12.40;;;8.20;73.90;;;;;;4931667;29;20043;-69
2022/03/13 05:57:40;;;;;;;18.52;13.48;;;8.20;73.80;;;;;;4926523;29;20531;-67
2022/03/13 06:00:11;;;;;;;19.15;13.75;;;8.20;73.70;;;;;;4931507;29;20043;-66
2022/03/13 06:02:40;;;;;;;19.13;13.40;;;8.30;73.70;;;;;;4915583;29;20052;-66
2022/03/13 06:05:07;;;;;;;20.63;14.15;;;8.30;73.70;;;;;;4930814;29;20556;-66
2022/03/13 06:07:34;;;;;;;26.10;14.70;;;8.30;73.60;;;;;;4931952;29;20126;-66
2022/03/13 06:10:03;;;;;;;18.73;14.15;;;8.30;73.60;;;;;;4931037;29;20464;-66
2022/03/13 06:12:30;;;;;;;16.75;13.13;;;8.30;73.50;;;;;;4926909;29;20048;-66
2022/03/13 06:14:56;;;;;;;21.77;13.65;;;8.30;73.50;;;;;;4931110;29;20135;-66
2022/03/13 06:17:22;;;;;;;22.58;14.05;;;8.30;73.40;;;;;;4927530;29;20051;-66
2022/03/13 06:19:48;;;;;;;20.55;14.23;;;8.40;73.30;;;;;;4912714;29;20040;-66
2022/03/13 06:22:13;;;;;;;24.98;14.90;;;8.30;73.30;;;;;;4914203;29;20077;-67
2022/03/13 06:24:40;;;;;;;18.90;13.25;;;8.40;73.20;;;;;;4934013;29;20043;-66
2022/03/13 06:27:06;;;;;;;18.42;13.85;;;8.40;73.10;;;;;;4934056;29;20778;-65
2022/03/13 06:29:32;;;;;;;24.98;15.32;;;8.40;73.20;;;;;;4915958;29;20123;-68
2022/03/13 06:31:58;;;;;;;19.25;13.45;;;8.40;73.20;;;;;;4924436;29;20500;-67
2022/03/13 06:34:25;;;;;;;24.08;14.77;;;8.40;73.30;;;;;;4917136;29;20036;-67
2022/03/13 06:36:50;;;;;;;19.63;13.93;;;8.30;73.20;;;;;;4917510;29;20316;-67
2022/03/13 06:39:16;;;;;;;18.17;13.60;;;8.30;73.20;;;;;;4934445;29;20411;-68
2022/03/13 06:41:42;;;;;;;19.13;13.70;;;8.40;73.30;;;;;;4934883;29;20389;-67
2022/03/13 06:44:08;;;;;;;20.13;13.65;;;8.30;73.10;;;;;;4924644;29;20051;-67
2022/03/13 06:46:34;;;;;;;18.13;12.50;;;8.30;73.00;;;;;;4918041;29;20048;-69
2022/03/13 06:49:01;;;;;;;17.58;12.48;;;8.30;72.80;;;;;;4927835;29;20043;-68
2022/03/13 06:51:26;;;;;;;19.15;13.13;;;8.40;72.70;;;;;;4906273;29;20115;-69
2022/03/13 06:53:52;;;;;;;18.55;13.15;;;8.30;72.50;;;;;;4925720;29;20043;-67
2022/03/13 06:56:18;;;;;;;17.88;13.00;;;8.40;72.50;;;;;;4934159;29;20047;-67
2022/03/13 06:58:44;;;;;;;18.20;12.07;;;8.40;72.20;;;;;;4935199;29;20516;-67
2022/03/13 07:01:10;;;;;;;17.42;12.60;;;8.40;72.00;;;;;;4933995;29;20047;-68
2022/03/13 07:03:36;;;;;;;16.85;12.20;;;8.50;71.70;;;;;;4934230;29;20055;-67
2022/03/13 07:06:05;;;;;;;19.25;12.80;;;8.50;71.60;;;;;;4934599;29;20387;-67
2022/03/13 07:08:33;;;;;;;17.63;12.90;;;8.50;71.50;;;;;;4933689;29;20106;-68
2022/03/13 07:11:01;;;;;;;17.00;12.45;;;8.50;71.40;;;;;;4924474;29;20048;-67
2022/03/13 07:13:32;;;;;;;20.13;12.77;;;8.50;71.10;;;;;;4929235;29;20063;-67
2022/03/13 07:16:03;;;;;;;16.98;12.40;;;8.60;71.00;;;;;;4934439;29;20059;-67
2022/03/13 07:18:30;;;;;;;17.25;12.98;;;8.50;70.90;;;;;;4930394;29;20048;-67
2022/03/13 07:20:56;;;;;;;17.67;12.65;;;8.50;70.70;;;;;;4915258;29;20528;-67
2022/03/13 07:23:22;;;;;;;18.33;11.65;;;8.60;70.50;;;;;;4930467;29;20055;-67
2022/03/13 07:25:49;;;;;;;18.98;12.18;;;8.60;70.30;;;;;;4933692;29;20468;-67
2022/03/13 07:28:14;;;;;;;18.45;12.40;;;8.60;70.10;;;;;;4933766;29;20496;-68
2022/03/13 07:30:40;;;;;;;16.45;11.63;;;8.60;70.00;;;;;;4928859;29;20055;-67
2022/03/13 07:33:06;;;;;;;17.83;12.15;;;8.60;69.80;;;;;;4927954;29;20106;-66
2022/03/13 07:35:31;;;;;;;18.00;13.07;;;8.60;69.60;;;;;;4931811;29;20047;-66
2022/03/13 07:37:57;;;;;;;18.85;13.15;;;8.60;69.80;;;;;;4932874;29;20560;-66
2022/03/13 07:40:22;;;;;;;16.02;11.73;;;8.60;69.90;;;;;;4931311;29;20405;-66
2022/03/13 07:42:48;;;;;;;18.52;13.45;;;8.60;69.90;;;;;;4932307;29;20110;-66
2022/03/13 07:45:14;;;;;;;19.13;11.85;;;8.60;69.80;;;;;;4932804;29;20043;-66
2022/03/13 07:47:40;;;;;;;16.95;12.15;;;8.60;69.70;;;;;;4932468;29;20184;-66
2022/03/13 07:50:07;;;;;;;20.15;12.77;;;8.60;69.70;;;;;;4930510;29;20082;-66
2022/03/13 07:52:32;;;;;;;17.92;12.13;;;8.60;69.60;;;;;;4934206;29;20051;-66
2022/03/13 07:54:58;;;;;;;16.15;12.18;;;8.60;69.80;;;;;;4930386;29;20091;-66
2022/03/13 07:57:24;;;;;;;17.80;11.90;;;8.60;69.60;;;;;;4923077;29;20070;-66
2022/03/13 07:59:49;;;;;;;18.33;12.25;;;8.50;69.70;;;;;;4924044;29;20044;-66
2022/03/13 08:02:15;;;;;;;16.30;11.68;;;8.60;69.60;;;;;;4915456;29;20051;-66
2022/03/13 08:04:41;;;;;;;18.15;11.55;;;8.60;69.50;;;;;;4921994;29;20058;-66
2022/03/13 08:07:07;;;;;;;14.43;10.70;;;8.60;69.50;;;;;;4930657;29;20047;-65
2022/03/13 08:09:34;;;;;;;19.30;11.88;;;8.60;69.40;;;;;;4928301;29;20043;-65
2022/03/13 08:12:00;;;;;;;19.75;12.30;;;8.60;69.20;;;;;;4932999;29;20058;-66
2022/03/13 08:14:27;;;;;;;15.90;12.23;;;8.70;69.00;;;;;;4930024;29;20525;-66
2022/03/13 08:16:52;;;;;;;17.05;11.52;;;8.70;68.80;;;;;;4931638;29;20050;-67
2022/03/13 08:19:18;;;;;;;19.73;11.77;;;8.70;68.50;;;;;;4931306;29;20043;-67
2022/03/13 08:21:44;;;;;;;23.00;13.85;;;8.80;68.60;;;;;;4932332;29;20087;-67
2022/03/13 08:24:10;;;;;;;14.70;12.02;;;8.80;68.70;;;;;;4931527;29;20035;-67
2022/03/13 08:26:39;;;;;;;16.67;11.20;;;8.80;68.30;;;;;;4915067;29;20047;-67
2022/03/13 08:29:08;;;;;;;17.45;11.68;;;8.90;67.90;;;;;;4929459;29;20052;-67
2022/03/13 08:31:34;;;;;;;23.85;11.02;;;8.90;68.00;;;;;;4927190;29;20433;-67
2022/03/13 08:34:01;;;;;;;15.05;11.90;;;9.00;67.90;;;;;;4930881;29;20086;-67
2022/03/13 08:36:27;;;;;;;15.32;11.57;;;9.10;67.80;;;;;;4931328;29;20059;-67
2022/03/13 08:38:53;;;;;;;23.42;12.68;;;9.20;67.30;;;;;;4931934;29;20378;-66
2022/03/13 08:41:19;;;;;;;19.85;12.20;;;9.30;67.40;;;;;;4928906;29;20058;-67
2022/03/13 08:43:45;;;;;;;18.77;11.80;;;9.30;67.10;;;;;;4930723;29;20043;-67
2022/03/13 08:46:12;;;;;;;18.40;12.95;;;9.50;67.10;;;;;;4922263;29;20119;-66
2022/03/13 08:48:39;;;;;;;21.80;14.00;;;9.60;66.40;;;;;;4919302;29;20067;-67
2022/03/13 08:51:05;;;;;;;25.90;13.50;;;9.60;66.30;;;;;;4923801;29;20079;-66
2022/03/13 08:53:31;;;;;;;15.50;10.90;;;9.70;66.30;;;;;;4926531;29;20086;-67
2022/03/13 08:55:56;;;;;;;16.17;12.10;;;9.70;65.60;;;;;;4931092;29;20469;-68
2022/03/13 08:58:22;;;;;;;22.00;11.57;;;9.70;65.80;;;;;;4928833;29;20043;-68
2022/03/13 09:00:50;;;;;;;20.00;12.48;;;9.70;64.70;;;;;;4929182;29;20044;-67
2022/03/13 09:03:18;;;;;;;16.10;11.43;;;9.70;64.70;;;;;;4931454;29;20402;-67
2022/03/13 09:05:44;;;;;;;17.83;12.07;;;9.70;65.00;;;;;;4928992;29;20064;-67
2022/03/13 09:08:10;;;;;;;15.15;11.65;;;9.80;65.20;;;;;;4914827;29;20091;-67
2022/03/13 09:10:36;;;;;;;16.90;12.02;;;9.80;65.30;;;;;;4926897;29;20076;-66
2022/03/13 09:13:02;;;;;;;19.90;12.57;;;9.90;65.30;;;;;;4932477;29;20048;-66
2022/03/13 09:15:28;;;;;;;15.82;10.77;;;9.90;63.90;;;;;;4931289;29;20040;-67
2022/03/13 09:17:54;;;;;;;15.95;11.40;;;10.00;63.90;;;;;;4932076;29;20099;-68
2022/03/13 09:20:21;;;;;;;16.58;12.35;;;10.00;63.80;;;;;;4921963;29;20559;-68
2022/03/13 09:22:48;;;;;;;19.02;12.75;;;10.10;64.50;;;;;;4920737;29;20049;-68
2022/03/13 09:25:13;;;;;;;16.65;11.32;;;10.20;62.90;;;;;;4922427;29;20135;-69
2022/03/13 09:27:39;;;;;;;20.65;12.20;;;10.30;63.10;;;;;;4915692;29;20130;-68
2022/03/13 09:30:06;;;;;;;20.73;12.05;;;10.50;62.50;;;;;;4931758;29;20035;-68
2022/03/13 09:32:31;;;;;;;20.95;11.25;;;10.60;62.80;;;;;;4915405;29;20523;-69
2022/03/13 09:34:57;;;;;;;19.38;11.05;;;10.70;61.90;;;;;;4930827;29;20040;-69
2022/03/13 09:37:23;;;;;;;16.58;11.93;;;10.80;61.80;;;;;;4931091;29;20496;-69
2022/03/13 09:39:50;;;;;;;16.95;11.25;;;10.90;61.30;;;;;;4931392;29;20090;-69
2022/03/13 09:42:15;;;;;;;16.05;10.60;;;11.00;60.70;;;;;;4930221;29;20059;-68
2022/03/13 09:44:41;;;;;;;17.27;10.85;;;11.10;59.70;;;;;;4927398;29;20043;-68
2022/03/13 09:47:10;;;;;;;16.77;11.25;;;11.20;58.90;;;;;;4916874;29;20052;-68
2022/03/13 09:49:36;;;;;;;17.02;12.23;;;11.20;58.90;;;;;;4923665;29;20551;-69
2022/03/13 09:52:02;;;;;;;17.92;11.73;;;11.30;58.20;;;;;;4914941;29;20390;-70
2022/03/13 09:54:28;;;;;;;18.35;11.57;;;11.30;58.60;;;;;;4914875;29;20047;-69
2022/03/13 09:56:53;;;;;;;17.13;11.13;;;11.40;58.70;;;;;;4923971;29;20043;-71
2022/03/13 09:59:19;;;;;;;18.08;11.32;;;11.40;57.40;;;;;;4917344;29;20052;-69
2022/03/13 10:01:45;;;;;;;16.85;11.50;;;11.50;58.00;;;;;;4922066;29;20762;-73
2022/03/13 10:04:12;;;;;;;16.30;11.48;;;11.60;58.10;;;;;;4932196;29;20086;-68
2022/03/13 10:07:04;;;;;;;22.00;11.75;;;11.50;56.40;;;;;;4917959;29;20084;-69
2022/03/13 10:09:31;;;;;;;17.50;11.90;;;11.60;56.80;;;;;;4928810;29;20553;-69
2022/03/13 10:12:12;;;;;;;20.70;11.38;;;11.60;56.70;;;;;;4923329;29;20496;-69
2022/03/13 10:14:57;;;;;;;16.65;11.13;;;11.60;57.30;;;;;;4932143;29;20492;-69
2022/03/13 10:17:31;;;;;;;17.08;11.73;;;11.70;57.20;;;;;;4912757;29;20058;-69
2022/03/13 10:20:15;;;;;;;19.13;11.95;;;11.80;57.40;;;;;;4926759;29;20036;-68
2022/03/13 10:22:42;;;;;;;16.95;11.15;;;11.90;56.70;;;;;;4913154;29;20419;-68
2022/03/13 10:25:08;;;;;;;20.00;13.02;;;11.90;57.70;;;;;;4912764;29;20180;-68
2022/03/13 10:27:34;;;;;;;17.55;11.45;;;12.00;58.00;;;;;;4925665;29;20548;-68
2022/03/13 10:30:09;;;;;;;17.27;12.23;;;12.10;57.60;;;;;;4921553;29;20560;-69
2022/03/13 10:32:38;;;;;;;17.83;12.40;;;12.20;57.70;;;;;;4922522;29;20054;-68
2022/03/13 10:35:04;;;;;;;20.48;13.02;;;12.20;57.40;;;;;;4928804;29;20094;-69
2022/03/13 10:37:38;;;;;;;16.75;11.80;;;12.20;57.40;;;;;;4923275;29;20095;-69
2022/03/13 10:40:09;;;;;;;22.20;11.70;;;12.30;57.60;;;;;;4923857;29;20052;-69
2022/03/13 10:42:43;;;;;;;17.15;11.80;;;12.40;57.50;;;;;;4912687;29;20056;-68
2022/03/13 10:45:33;;;;;;;16.73;11.57;;;12.60;57.60;;;;;;4929344;29;20134;-68
2022/03/13 10:48:21;;;;;;;18.45;12.30;;;12.60;57.30;;;;;;4919040;29;20063;-70
2022/03/13 10:50:48;;;;;;;19.70;13.02;;;12.80;56.50;;;;;;4925923;29;20086;-69
2022/03/13 10:53:15;;;;;;;19.52;13.68;;;12.90;56.80;;;;;;4931520;29;20047;-69
2022/03/13 10:55:44;;;;;;;18.02;13.00;;;13.00;57.30;;;;;;4923480;29;20436;-70
2022/03/13 10:58:16;;;;;;;17.15;12.68;;;13.10;56.70;;;;;;4922830;29;20048;-70
2022/03/13 11:00:45;;;;;;;16.60;12.80;;;13.10;56.80;;;;;;4929454;29;20091;-70
2022/03/13 11:03:17;;;;;;;19.05;13.07;;;13.20;56.60;;;;;;4913965;29;20044;-71
2022/03/13 11:05:42;;;;;;;19.17;13.13;;;13.20;56.40;;;;;;4924303;29;20445;-67
2022/03/13 11:08:08;;;;;;;18.67;13.32;;;13.20;57.00;;;;;;4914827;29;20072;-69
2022/03/13 11:10:37;;;;;;;22.83;13.60;;;13.20;57.00;;;;;;4913584;29;20051;-71
2022/03/13 11:13:06;;;;;;;18.48;12.88;;;13.20;57.50;;;;;;4923195;29;20131;-69
2022/03/13 11:15:34;;;;;;;18.15;13.13;;;13.20;57.60;;;;;;4932310;29;20523;-69
2022/03/13 11:18:02;;;;;;;19.95;13.45;;;13.20;58.00;;;;;;4927079;29;20098;-71
2022/03/13 11:20:30;;;;;;;17.58;12.30;;;13.10;58.10;;;;;;4915943;29;20048;-69
2022/03/13 11:22:55;;;;;;;21.58;13.70;;;13.20;58.10;;;;;;4924163;29;20047;-70
2022/03/13 11:25:23;;;;;;;17.70;12.65;;;13.20;58.20;;;;;;4920824;29;20051;-70
2022/03/13 11:27:51;;;;;;;18.40;13.68;;;13.30;58.30;;;;;;4928765;29;20060;-70
2022/03/13 11:30:31;;;;;;;20.70;13.80;;;13.50;57.90;;;;;;4915680;29;20477;-69
2022/03/13 11:32:59;;;;;;;17.88;12.88;;;13.70;57.50;;;;;;4915779;29;20507;-71
2022/03/13 11:35:27;;;;;;;19.52;13.75;;;13.80;57.10;;;;;;4922194;29;20544;-70
2022/03/13 11:38:16;;;;;;;19.90;13.05;;;13.90;56.80;;;;;;4932210;29;20178;-69
2022/03/13 11:40:42;;;;;;;17.20;12.82;;;14.10;56.20;;;;;;4929444;29;20089;-69
2022/03/13 11:43:19;;;;;;;16.67;12.63;;;14.10;56.30;;;;;;4927687;29;20373;-69
2022/03/13 11:45:49;;;;;;;19.05;13.52;;;14.10;55.30;;;;;;4930934;29;20122;-70
2022/03/13 11:48:16;;;;;;;20.05;13.25;;;14.10;56.30;;;;;;4931876;29;20110;-70
2022/03/13 11:50:52;;;;;;;15.77;12.18;;;14.10;56.40;;;;;;4900434;29;20464;-70
2022/03/13 11:53:23;;;;;;;18.33;12.50;;;14.10;55.90;;;;;;4930911;29;20060;-68
2022/03/13 11:56:13;;;;;;;16.38;11.95;;;14.20;58.50;;;;;;4915637;29;20507;-67
2022/03/13 11:58:50;;;;;;;18.92;13.10;;;14.20;56.60;;;;;;4915743;29;20472;-69
2022/03/13 12:01:18;;;;;;;20.40;11.93;;;14.20;56.80;;;;;;4921543;29;20047;-68
2022/03/13 12:04:05;;;;;;;21.55;12.35;;;14.20;57.20;;;;;;4922663;29;20139;-68
2022/03/13 12:06:49;;;;;;;17.70;12.70;;;14.30;55.60;;;;;;4923089;29;20143;-69
2022/03/13 12:09:18;;;;;;;15.45;11.25;;;14.30;56.20;;;;;;4930184;29;20048;-68
2022/03/13 12:11:50;;;;;;;14.90;11.60;;;14.30;56.60;;;;;;4923853;29;20039;-69
2022/03/13 12:14:18;;;;;;;15.40;11.80;;;14.30;56.60;;;;;;4931547;29;20039;-68
2022/03/13 12:16:45;;;;;;;16.70;12.13;;;14.40;56.50;;;;;;4930288;29;20404;-68
2022/03/13 12:19:12;;;;;;;17.00;12.07;;;14.50;56.30;;;;;;4927327;29;20115;-69
2022/03/13 12:21:43;;;;;;;14.45;10.55;;;14.60;55.80;;;;;;4929101;29;20043;-68
2022/03/13 12:24:13;;;;;;;15.85;10.98;;;14.60;55.40;;;;;;4928383;29;20563;-69
2022/03/13 12:26:40;;;;;;;14.48;10.23;;;14.60;54.80;;;;;;4928225;29;20047;-70
2022/03/13 12:29:07;;;;;;;15.23;10.73;;;14.70;54.70;;;;;;4928083;29;20393;-71
2022/03/13 12:31:40;;;;;;;16.42;11.73;;;14.80;54.50;;;;;;4932458;29;20052;-70
2022/03/13 12:34:06;;;;;;;17.50;11.25;;;14.80;54.10;;;;;;4924674;29;20111;-67
2022/03/13 12:36:36;;;;;;;16.52;11.40;;;14.90;54.50;;;;;;4928272;29;20142;-67